createdAt,value
2023-04-03T00:03:23.355Z,10.37
2023-04-03T00:10:33.978Z,10.59
2023-04-03T00:13:15.768Z,10.53
2023-04-03T00:24:41.531Z,10.23
2023-04-03T00:32:09.481Z,10.19
2023-04-03T00:35:32.108Z,10.27
2023-04-03T00:42:29.274Z,10.21
2023-04-03T00:45:29.655Z,10.23
2023-04-03T01:08:50.808Z,10.05
2023-04-03T01:15:28.823Z,9.88
2023-04-03T01:34:32.898Z,9.47
2023-04-03T01:38:05.524Z,9.64
2023-04-03T01:44:11.175Z,9.57
2023-04-03T01:46:52.957Z,9.34
2023-04-03T01:49:36.153Z,8.98
2023-04-03T01:52:09.347Z,9.33
2023-04-03T01:54:36.905Z,9.47
2023-04-03T01:57:04.587Z,9.55
2023-04-03T01:59:32.785Z,9.53
2023-04-03T02:02:00.910Z,9.26
2023-04-03T02:04:28.594Z,9.09
2023-04-03T02:06:56.260Z,8.99
2023-04-03T02:09:24.950Z,9.01
2023-04-03T02:11:54.416Z,9.07
2023-04-03T02:14:22.968Z,9.11
2023-04-03T02:16:51.119Z,8.98
2023-04-03T02:19:18.640Z,8.89
2023-04-03T02:21:46.236Z,8.79
2023-04-03T02:24:13.772Z,8.77
2023-04-03T02:26:42.593Z,8.85
2023-04-03T02:29:10.234Z,8.91
2023-04-03T02:31:39.271Z,8.87
2023-04-03T02:34:07.127Z,8.98
2023-04-03T02:36:37.772Z,8.98
2023-04-03T02:39:08.662Z,8.77
2023-04-03T02:41:36.686Z,8.79
2023-04-03T02:44:11.451Z,8.58
2023-04-03T02:46:39.102Z,8.71
2023-04-03T02:49:07.740Z,8.82
2023-04-03T02:51:35.381Z,8.94
2023-04-03T02:54:03.208Z,8.78
2023-04-03T02:56:34.281Z,8.77
2023-04-03T02:59:07.282Z,8.91
2023-04-03T03:01:37.133Z,8.66
2023-04-03T03:04:05.191Z,8.33
2023-04-03T03:06:33.919Z,8.49
2023-04-03T03:09:01.484Z,8.67
2023-04-03T03:11:30.619Z,8.68
2023-04-03T03:13:58.807Z,8.73
2023-04-03T03:16:27.126Z,8.77
2023-04-03T03:18:54.866Z,8.82
2023-04-03T03:21:22.746Z,8.65
2023-04-03T03:23:50.548Z,8.62
2023-04-03T03:26:18.131Z,8.59
2023-04-03T03:28:46.798Z,8.45
2023-04-03T03:31:14.927Z,8.48
2023-04-03T03:33:42.657Z,8.71
2023-04-03T03:36:10.753Z,8.70
2023-04-03T03:38:39.320Z,8.65
2023-04-03T03:41:07.472Z,8.72
2023-04-03T03:43:36.357Z,8.69
2023-04-03T03:46:06.124Z,8.70
2023-04-03T03:48:33.805Z,8.73
2023-04-03T03:51:03.651Z,8.52
2023-04-03T03:53:35.661Z,8.48
2023-04-03T03:56:07.787Z,8.47
2023-04-03T03:58:37.896Z,8.39
2023-04-03T04:01:09.365Z,8.24
2023-04-03T04:03:43.168Z,8.22
2023-04-03T04:06:13.963Z,8.03
2023-04-03T04:08:41.799Z,8.05
2023-04-03T04:11:11.641Z,8.23
2023-04-03T04:13:41.744Z,8.30
2023-04-03T04:16:11.305Z,8.33
2023-04-03T04:18:39.812Z,8.32
2023-04-03T04:21:07.436Z,8.51
2023-04-03T04:23:35.233Z,8.61
2023-04-03T04:26:02.873Z,8.64
2023-04-03T04:28:34.619Z,8.56
2023-04-03T04:31:04.241Z,8.69
2023-04-03T04:33:32.961Z,8.46
2023-04-03T04:36:04.743Z,8.45
2023-04-03T04:38:33.289Z,8.60
2023-04-03T04:41:01.230Z,8.64
2023-04-03T04:43:29.315Z,8.83
2023-04-03T04:46:10.947Z,9.34
2023-04-03T04:48:49.453Z,9.62
2023-04-03T04:51:19.424Z,9.62
2023-04-03T04:53:47.466Z,9.41
2023-04-03T04:56:17.415Z,9.42
2023-04-03T04:58:45.803Z,9.45
2023-04-03T05:01:17.025Z,9.34
2023-04-03T05:04:05.534Z,9.22
2023-04-03T05:06:42.057Z,9.21
2023-04-03T05:09:23.628Z,9.48
2023-04-03T05:11:52.989Z,9.37
2023-04-03T05:14:31.260Z,9.39
2023-04-03T05:17:06.883Z,9.39
2023-04-03T05:19:54.797Z,9.43
2023-04-03T05:22:23.576Z,9.33
2023-04-03T05:24:53.792Z,9.49
2023-04-03T05:27:24.573Z,9.58
2023-04-03T05:29:56.113Z,9.61
2023-04-03T05:32:26.240Z,9.78
2023-04-03T05:35:02.734Z,10.05
2023-04-03T05:37:41.560Z,10.12
2023-04-03T05:40:10.333Z,10.30
2023-04-03T05:42:41.617Z,10.36
2023-04-03T05:45:09.549Z,10.43
2023-04-03T05:47:37.495Z,10.58
2023-04-03T05:50:07.827Z,10.78
2023-04-03T05:53:20.498Z,10.71
2023-04-03T06:02:07.973Z,11.28
2023-04-03T06:08:21.105Z,11.44
2023-04-03T06:10:48.899Z,11.57
2023-04-03T06:13:18.539Z,11.71
2023-04-03T06:15:46.089Z,11.90
2023-04-03T06:18:13.487Z,11.88
2023-04-03T06:20:41.734Z,11.98
2023-04-03T06:23:09.413Z,11.96
2023-04-03T06:25:36.880Z,12.11
2023-04-03T06:28:10.374Z,12.22
2023-04-03T06:30:43.068Z,12.31
2023-04-03T06:33:10.765Z,12.38
2023-04-03T07:21:55.367Z,17.30
2023-04-03T07:24:58.225Z,18.17
2023-04-03T07:28:39.927Z,16.73
2023-04-03T07:31:13.341Z,16.73
2023-04-03T07:34:36.935Z,17.01
2023-04-03T07:38:13.020Z,17.25
2023-04-03T12:35:36.634Z,15.72
2023-04-03T12:38:36.519Z,16.22
2023-04-03T12:42:18.933Z,16.19
2023-04-03T16:43:39.326Z,14.40
2023-04-03T16:46:10.085Z,14.28
2023-04-03T16:51:31.303Z,13.91
2023-04-03T16:54:08.157Z,14.08
2023-04-03T16:56:35.465Z,14.08
2023-04-03T16:59:02.848Z,14.01
2023-04-03T17:01:30.598Z,13.69
2023-04-03T17:03:57.979Z,13.62
2023-04-03T17:06:25.500Z,13.59
2023-04-03T17:08:55.462Z,13.50
2023-04-03T17:11:29.021Z,13.47
2023-04-03T17:13:56.372Z,13.71
2023-04-03T17:16:24.434Z,13.54
2023-04-03T17:18:52.726Z,13.17
2023-04-03T17:25:44.473Z,13.25
2023-04-03T17:28:11.869Z,13.25
2023-04-03T17:30:39.187Z,13.17
2023-04-03T17:33:06.744Z,13.03
2023-04-03T17:35:34.273Z,13.14
2023-04-03T17:47:04.767Z,12.85
2023-04-03T17:49:57.249Z,12.93
2023-04-03T17:52:31.954Z,12.94
2023-04-03T17:55:05.035Z,12.92
2023-04-03T17:57:32.416Z,12.74
2023-04-03T18:12:31.620Z,12.52
2023-04-03T18:15:00.380Z,12.70
2023-04-03T18:17:35.843Z,12.45
2023-04-03T18:20:06.457Z,12.38
2023-04-03T18:27:03.840Z,12.46
2023-04-03T18:29:32.881Z,12.33
2023-04-03T18:36:18.965Z,12.74
2023-04-03T18:47:43.225Z,12.43
2023-04-03T18:50:10.861Z,12.32
2023-04-03T18:52:38.279Z,12.37
2023-04-03T18:59:27.592Z,12.43
2023-04-03T19:01:55.867Z,12.41
2023-04-03T19:04:23.442Z,12.20
2023-04-03T19:07:41.955Z,11.90
2023-04-03T19:14:27.424Z,11.46
2023-04-03T19:21:15.900Z,11.22
2023-04-03T19:23:45.027Z,11.24
2023-04-03T19:26:14.917Z,10.95
2023-04-03T19:28:42.642Z,10.84
2023-04-03T19:31:14.092Z,10.62
2023-04-03T19:33:42.255Z,10.86
2023-04-03T19:36:12.424Z,10.93
2023-04-03T19:47:31.420Z,11.17
2023-04-03T19:49:59.642Z,11.15
2023-04-03T19:52:27.112Z,11.46
2023-04-03T19:59:19.547Z,11.66
2023-04-03T20:02:01.657Z,11.60
2023-04-03T20:08:55.927Z,11.50
2023-04-03T20:16:04.354Z,11.43
2023-04-03T20:19:03.934Z,11.39
2023-04-03T20:26:06.508Z,11.31
2023-04-03T20:28:47.871Z,11.17
2023-04-03T20:31:20.740Z,11.10
2023-04-03T20:33:53.460Z,11.12
2023-04-03T20:36:31.335Z,11.02
2023-04-03T20:47:45.683Z,11.48
2023-04-03T20:55:22.366Z,11.30
2023-04-03T20:58:13.753Z,11.37
2023-04-03T21:09:27.341Z,11.42
2023-04-03T21:25:09.355Z,11.48
2023-04-03T21:32:54.669Z,11.18
2023-04-03T21:40:08.716Z,11.33
2023-04-03T21:42:41.734Z,11.52
2023-04-03T21:49:33.079Z,11.24
2023-04-03T21:52:03.063Z,11.12
2023-04-03T21:54:33.724Z,11.04
2023-04-03T22:01:29.635Z,10.98
2023-04-03T22:03:59.622Z,11.04
2023-04-03T22:06:26.980Z,10.99
2023-04-03T22:08:57.144Z,11.03
2023-04-03T22:11:32.980Z,10.84
2023-04-03T22:18:32.660Z,10.70
2023-04-03T22:21:00.129Z,10.87
2023-04-03T22:23:29.825Z,10.43
2023-04-03T22:26:21.637Z,10.21
2023-04-03T22:28:48.860Z,10.35
2023-04-03T22:35:48.268Z,10.26
2023-04-03T22:38:16.042Z,10.24
2023-04-03T22:44:27.564Z,10.20
2023-04-03T22:51:21.295Z,9.95
2023-04-03T22:58:15.844Z,10.12
2023-04-03T23:00:43.470Z,10.00
2023-04-03T23:03:13.053Z,9.80
2023-04-03T23:05:40.740Z,9.95
2023-04-03T23:08:08.006Z,9.79
2023-04-03T23:10:38.073Z,9.87
2023-04-03T23:13:05.699Z,9.92
2023-04-03T23:24:39.293Z,9.69
2023-04-03T23:31:26.104Z,9.33
2023-04-03T23:33:56.746Z,9.28
2023-04-03T23:36:26.623Z,9.35
2023-04-03T23:42:09.222Z,9.27
2023-04-03T23:44:43.744Z,9.31
2023-04-03T23:47:16.687Z,9.51
2023-04-03T23:54:05.842Z,9.31
2023-04-03T23:56:36.061Z,9.15
2023-04-03T23:59:16.518Z,9.36
